Time;durP1;ratioP1;P1;durP2;ratioP2;P2;SDS_P1;SDS_P2;PMS_P1;PMS_P2;Temp;Humidity;BMP_temperature;BMP_pressure;BME280_temperature;BME280_humidity;BME280_pressure;Samples;Min_cycle;Max_cycle;Signal;HPM_P1;HPM_P2
2021/08/10 00:01:40;;;;;;;61.40;57.90;;;;;;;;;;4999325;28;20476;-68
2021/08/10 00:04:07;;;;;;;56.73;53.57;;;;;;;;;;5004261;28;20481;-68
2021/08/10 00:06:34;;;;;;;58.93;55.73;;;;;;;;;;4979956;28;20491;-67
2021/08/10 00:09:03;;;;;;;56.80;53.60;;;;;;;;;;4995009;28;20474;-67
2021/08/10 00:11:30;;;;;;;54.60;51.60;;;;;;;;;;4993764;28;20469;-67
2021/08/10 00:13:57;;;;;;;53.20;50.27;;;;;;;;;;4996469;28;20837;-68
2021/08/10 00:16:24;;;;;;;52.30;49.50;;;;;;;;;;4994661;28;20486;-68
2021/08/10 00:18:51;;;;;;;49.13;46.40;;;;;;;;;;4994580;28;20474;-68
2021/08/10 00:21:18;;;;;;;48.80;46.00;;;;;;;;;;4999909;28;20480;-68
2021/08/10 00:23:45;;;;;;;47.63;45.03;;;;;;;;;;5006006;28;20453;-68
2021/08/10 00:26:14;;;;;;;49.23;46.50;;;;;;;;;;4992793;28;20493;-68
2021/08/10 00:28:42;;;;;;;48.43;45.83;;;;;;;;;;4993096;28;20454;-68
2021/08/10 00:31:09;;;;;;;47.63;45.03;;;;;;;;;;4988420;28;20471;-68
2021/08/10 00:33:36;;;;;;;47.50;45.00;;;;;;;;;;4987165;28;20454;-68
2021/08/10 00:36:03;;;;;;;46.43;43.80;;;;;;;;;;4990436;28;20997;-68
2021/08/10 00:38:30;;;;;;;48.83;46.13;;;;;;;;;;4993657;28;20455;-68
2021/08/10 00:40:58;;;;;;;46.50;43.90;;;;;;;;;;4993061;28;20474;-68
2021/08/10 00:43:31;;;;;;;49.13;46.40;;;;;;;;;;4997507;28;20838;-68
2021/08/10 00:45:58;;;;;;;47.40;44.73;;;;;;;;;;4993510;28;20490;-68
2021/08/10 00:48:25;;;;;;;44.40;41.90;;;;;;;;;;4997410;28;20946;-68
2021/08/10 00:50:52;;;;;;;44.00;41.40;;;;;;;;;;4994112;28;20476;-68
2021/08/10 00:53:20;;;;;;;44.93;42.43;;;;;;;;;;4990272;28;20468;-68
2021/08/10 00:55:47;;;;;;;44.10;41.60;;;;;;;;;;4994548;28;20462;-68
2021/08/10 00:58:15;;;;;;;44.87;42.17;;;;;;;;;;5007284;28;20814;-68
2021/08/10 01:00:43;;;;;;;44.73;41.90;;;;;;;;;;4992888;28;20451;-67
2021/08/10 01:03:11;;;;;;;47.00;44.00;;;;;;;;;;4988355;28;20462;-67
2021/08/10 01:05:38;;;;;;;44.90;42.20;;;;;;;;;;4992007;28;20485;-68
2021/08/10 01:08:09;;;;;;;47.63;44.43;;;;;;;;;;4986117;28;20467;-68
2021/08/10 01:10:39;;;;;;;44.57;41.97;;;;;;;;;;4977730;28;20446;-67
2021/08/10 01:13:10;;;;;;;44.47;41.80;;;;;;;;;;4999920;28;20457;-68
2021/08/10 01:15:40;;;;;;;45.47;42.67;;;;;;;;;;4994067;28;20489;-67
2021/08/10 01:18:14;;;;;;;44.07;41.47;;;;;;;;;;4993795;28;20471;-68
2021/08/10 01:21:01;;;;;;;44.40;41.80;;;;;;;;;;4991716;28;20831;-67
2021/08/10 01:23:30;;;;;;;43.27;40.87;;;;;;;;;;4992358;28;20466;-68
2021/08/10 01:26:00;;;;;;;43.23;40.83;;;;;;;;;;5011915;28;20489;-67
2021/08/10 01:28:35;;;;;;;44.50;42.00;;;;;;;;;;4983842;28;20474;-67
2021/08/10 01:31:15;;;;;;;46.90;44.20;;;;;;;;;;4990430;28;20474;-68
2021/08/10 01:33:45;;;;;;;47.00;44.10;;;;;;;;;;4987023;28;20470;-67
2021/08/10 01:36:12;;;;;;;47.83;45.10;;;;;;;;;;4991783;28;20493;-67
2021/08/10 01:38:41;;;;;;;47.00;44.37;;;;;;;;;;4992388;28;20447;-67
2021/08/10 01:41:08;;;;;;;47.80;44.93;;;;;;;;;;4990690;28;20466;-67
2021/08/10 01:43:36;;;;;;;48.97;45.97;;;;;;;;;;4991175;28;20978;-67
2021/08/10 01:46:04;;;;;;;49.60;46.90;;;;;;;;;;5004013;22;20502;-59
2021/08/10 01:48:34;;;;;;;50.40;47.60;;;;;;;;;;4986538;28;20498;-59
2021/08/10 01:51:01;;;;;;;49.30;46.50;;;;;;;;;;4991181;28;20477;-59
2021/08/10 01:53:29;;;;;;;44.57;42.23;;;;;;;;;;4989439;28;22107;-58
2021/08/10 01:55:58;;;;;;;45.43;42.80;;;;;;;;;;4990892;28;20859;-59
2021/08/10 01:58:25;;;;;;;44.90;42.43;;;;;;;;;;4991519;28;20462;-59
2021/08/10 02:00:53;;;;;;;42.07;39.67;;;;;;;;;;4990703;28;20470;-59
2021/08/10 02:03:21;;;;;;;43.60;41.20;;;;;;;;;;4991509;28;20470;-59
2021/08/10 02:05:50;;;;;;;41.53;39.23;;;;;;;;;;4991469;28;20497;-59
2021/08/10 02:08:17;;;;;;;42.97;40.57;;;;;;;;;;4991421;28;20458;-59
2021/08/10 02:10:46;;;;;;;43.53;41.23;;;;;;;;;;4991900;28;20462;-59
2021/08/10 02:13:14;;;;;;;43.07;40.57;;;;;;;;;;4991050;28;20549;-59
2021/08/10 02:15:42;;;;;;;43.87;41.43;;;;;;;;;;4992291;28;20847;-59
2021/08/10 02:18:09;;;;;;;42.17;39.73;;;;;;;;;;4989094;28;20470;-58
2021/08/10 02:20:38;;;;;;;42.87;40.50;;;;;;;;;;4991906;28;20466;-59
2021/08/10 02:23:08;;;;;;;41.93;39.53;;;;;;;;;;4990822;28;20476;-59
2021/08/10 02:25:35;;;;;;;40.93;38.63;;;;;;;;;;4992289;28;20487;-59
2021/08/10 02:28:04;;;;;;;41.67;39.37;;;;;;;;;;4990743;28;20504;-58
2021/08/10 02:30:33;;;;;;;40.27;37.80;;;;;;;;;;4991312;28;20493;-59
2021/08/10 02:33:02;;;;;;;40.53;38.13;;;;;;;;;;4991353;28;20471;-58
2021/08/10 02:35:30;;;;;;;38.10;36.00;;;;;;;;;;4991870;28;20471;-59
2021/08/10 02:38:00;;;;;;;38.67;35.90;;;;;;;;;;4989300;28;20483;-59
2021/08/10 02:40:29;;;;;;;36.63;34.63;;;;;;;;;;4992002;28;20457;-59
2021/08/10 02:42:59;;;;;;;37.10;34.70;;;;;;;;;;4990513;28;21023;-59
2021/08/10 02:45:26;;;;;;;36.03;32.93;;;;;;;;;;4991486;28;20484;-59
2021/08/10 02:47:54;;;;;;;36.03;33.87;;;;;;;;;;4990244;28;20467;-59
2021/08/10 02:50:21;;;;;;;37.07;34.90;;;;;;;;;;4990877;28;20462;-59
2021/08/10 02:52:48;;;;;;;35.70;33.80;;;;;;;;;;4995145;28;20455;-58
2021/08/10 02:55:18;;;;;;;35.80;33.60;;;;;;;;;;4995564;28;20486;-59
2021/08/10 02:57:50;;;;;;;36.50;34.03;;;;;;;;;;4994807;28;20455;-58
2021/08/10 03:00:17;;;;;;;35.90;34.00;;;;;;;;;;4993860;28;20470;-58
2021/08/10 03:02:45;;;;;;;36.50;34.50;;;;;;;;;;4994220;28;20472;-58
2021/08/10 03:05:13;;;;;;;36.07;33.87;;;;;;;;;;4995403;28;20486;-59
2021/08/10 03:07:42;;;;;;;35.97;33.97;;;;;;;;;;4994710;28;20486;-59
2021/08/10 03:10:10;;;;;;;36.40;34.30;;;;;;;;;;4986843;28;20455;-58
2021/08/10 03:12:40;;;;;;;35.73;33.67;;;;;;;;;;4994752;28;20466;-59
2021/08/10 03:15:09;;;;;;;36.50;34.33;;;;;;;;;;4994949;28;20482;-59
2021/08/10 03:17:38;;;;;;;35.40;33.40;;;;;;;;;;4992889;28;20463;-59
2021/08/10 03:20:06;;;;;;;36.20;34.30;;;;;;;;;;4993997;28;20470;-59
2021/08/10 03:22:34;;;;;;;33.80;31.80;;;;;;;;;;4983868;28;20557;-59
2021/08/10 03:25:01;;;;;;;35.77;33.77;;;;;;;;;;4995277;28;20454;-58
2021/08/10 03:27:28;;;;;;;33.57;31.77;;;;;;;;;;4993686;28;20482;-58
2021/08/10 03:29:55;;;;;;;34.57;32.57;;;;;;;;;;4993688;28;20470;-58
2021/08/10 03:32:24;;;;;;;35.37;33.10;;;;;;;;;;4993965;28;20989;-58
2021/08/10 03:34:51;;;;;;;36.70;34.40;;;;;;;;;;4994403;28;20481;-58
2021/08/10 03:37:19;;;;;;;36.20;34.00;;;;;;;;;;4993738;28;20468;-58
2021/08/10 03:39:46;;;;;;;34.80;32.87;;;;;;;;;;4993853;28;20462;-58
2021/08/10 03:42:14;;;;;;;34.27;32.37;;;;;;;;;;4994237;28;20992;-58
2021/08/10 03:44:42;;;;;;;35.23;33.10;;;;;;;;;;4995033;28;20996;-58
2021/08/10 03:47:10;;;;;;;35.00;33.07;;;;;;;;;;4993095;28;20490;-58
2021/08/10 03:49:39;;;;;;;33.03;31.13;;;;;;;;;;4994255;28;20466;-58
2021/08/10 03:52:08;;;;;;;34.03;31.93;;;;;;;;;;5006440;28;20442;-59
2021/08/10 03:54:36;;;;;;;31.97;30.10;;;;;;;;;;5007835;28;20474;-58
2021/08/10 03:57:03;;;;;;;32.57;30.67;;;;;;;;;;4993798;28;20997;-58
2021/08/10 03:59:32;;;;;;;31.90;30.00;;;;;;;;;;4993592;28;21175;-57
2021/08/10 04:02:00;;;;;;;31.20;29.20;;;;;;;;;;4992010;28;20462;-58
2021/08/10 04:04:27;;;;;;;32.83;30.67;;;;;;;;;;4993946;28;20844;-58
2021/08/10 04:06:56;;;;;;;31.53;29.80;;;;;;;;;;4992973;28;20486;-58
2021/08/10 04:09:23;;;;;;;30.70;28.90;;;;;;;;;;4993875;28;20465;-57
2021/08/10 04:11:50;;;;;;;30.97;29.27;;;;;;;;;;4992466;28;20466;-58
2021/08/10 04:14:19;;;;;;;30.33;28.53;;;;;;;;;;4985191;28;20831;-58
2021/08/10 04:16:48;;;;;;;31.10;29.30;;;;;;;;;;4982578;28;20513;-58
2021/08/10 04:19:15;;;;;;;30.50;28.70;;;;;;;;;;4992856;28;20999;-57
2021/08/10 04:21:44;;;;;;;29.67;28.03;;;;;;;;;;4994096;28;20541;-58
2021/08/10 04:24:12;;;;;;;31.53;29.73;;;;;;;;;;4993278;28;20976;-58
2021/08/10 04:26:39;;;;;;;30.73;28.87;;;;;;;;;;4992671;28;21122;-58
2021/08/10 04:29:07;;;;;;;30.47;28.87;;;;;;;;;;4991325;28;20450;-58
2021/08/10 04:31:34;;;;;;;31.97;30.00;;;;;;;;;;4993045;28;20481;-57
2021/08/10 04:34:01;;;;;;;30.57;28.90;;;;;;;;;;4993645;28;20988;-58
2021/08/10 04:36:28;;;;;;;31.43;29.53;;;;;;;;;;4993355;28;20489;-58
2021/08/10 04:38:55;;;;;;;30.57;28.80;;;;;;;;;;4994228;28;20454;-58
2021/08/10 04:41:24;;;;;;;31.13;29.27;;;;;;;;;;4991255;28;20502;-58
2021/08/10 04:43:52;;;;;;;30.50;28.80;;;;;;;;;;4992710;28;20470;-58
2021/08/10 04:46:19;;;;;;;29.50;27.80;;;;;;;;;;4993250;28;20509;-58
2021/08/10 04:48:46;;;;;;;31.10;28.83;;;;;;;;;;4992670;28;20849;-58
2021/08/10 04:51:13;;;;;;;31.07;29.13;;;;;;;;;;4993597;28;20470;-59
2021/08/10 04:53:40;;;;;;;32.00;30.03;;;;;;;;;;4992655;28;20474;-58
2021/08/10 04:56:09;;;;;;;30.30;28.40;;;;;;;;;;4993522;28;20989;-58
2021/08/10 04:58:37;;;;;;;32.37;30.40;;;;;;;;;;4992131;28;20462;-58
2021/08/10 05:01:04;;;;;;;32.60;30.17;;;;;;;;;;4992458;28;21016;-58
2021/08/10 05:03:32;;;;;;;30.87;28.83;;;;;;;;;;4992790;28;20470;-58
2021/08/10 05:05:59;;;;;;;32.27;30.37;;;;;;;;;;4993169;28;20926;-58
2021/08/10 05:08:26;;;;;;;50.30;47.70;;;;;;;;;;4992608;28;20969;-57
2021/08/10 05:10:54;;;;;;;31.80;29.90;;;;;;;;;;4993026;28;20474;-58
2021/08/10 05:13:21;;;;;;;32.47;30.53;;;;;;;;;;4993306;28;20477;-58
2021/08/10 05:15:50;;;;;;;31.50;29.57;;;;;;;;;;4994128;28;20470;-59
2021/08/10 05:18:17;;;;;;;31.57;29.57;;;;;;;;;;4991215;28;20837;-58
2021/08/10 05:20:44;;;;;;;32.53;30.57;;;;;;;;;;4990353;28;20522;-57
2021/08/10 05:23:11;;;;;;;32.90;30.70;;;;;;;;;;4992755;28;20481;-58
2021/08/10 05:25:39;;;;;;;33.17;31.17;;;;;;;;;;5005084;28;20489;-58
2021/08/10 05:28:06;;;;;;;32.50;30.63;;;;;;;;;;5007059;28;20488;-58
2021/08/10 05:30:33;;;;;;;31.80;30.00;;;;;;;;;;4991054;28;20970;-59
2021/08/10 05:33:01;;;;;;;31.80;29.90;;;;;;;;;;4993994;28;20450;-58
2021/08/10 05:35:29;;;;;;;31.17;29.40;;;;;;;;;;4991573;28;20835;-58
2021/08/10 05:37:56;;;;;;;31.87;29.87;;;;;;;;;;4994242;28;20459;-60
2021/08/10 05:40:23;;;;;;;31.00;29.00;;;;;;;;;;5005710;28;20470;-58
2021/08/10 05:42:50;;;;;;;32.00;30.00;;;;;;;;;;4997012;28;21081;-58
2021/08/10 05:45:17;;;;;;;31.90;29.90;;;;;;;;;;4993603;28;20493;-57
2021/08/10 05:47:44;;;;;;;31.83;29.63;;;;;;;;;;5000959;28;20481;-58
2021/08/10 05:50:13;;;;;;;31.93;29.93;;;;;;;;;;5008393;28;20557;-58
2021/08/10 05:52:40;;;;;;;31.70;29.80;;;;;;;;;;5011334;28;20523;-58
2021/08/10 05:55:07;;;;;;;31.63;29.83;;;;;;;;;;5006788;28;21944;-58
2021/08/10 05:57:34;;;;;;;32.70;30.80;;;;;;;;;;5007588;28;20497;-58
2021/08/10 06:00:02;;;;;;;33.50;31.30;;;;;;;;;;5010088;28;20538;-61
2021/08/10 06:02:29;;;;;;;32.30;30.20;;;;;;;;;;5009158;28;20526;-59
2021/08/10 06:04:56;;;;;;;32.57;30.67;;;;;;;;;;5010652;28;20455;-60
2021/08/10 06:07:24;;;;;;;33.13;31.13;;;;;;;;;;5010646;28;20486;-59
2021/08/10 06:09:51;;;;;;;33.00;31.13;;;;;;;;;;5007636;28;20522;-59
2021/08/10 06:12:18;;;;;;;32.83;30.50;;;;;;;;;;5010351;28;20517;-61
2021/08/10 06:14:45;;;;;;;33.87;31.97;;;;;;;;;;5010907;28;20526;-59
2021/08/10 06:17:13;;;;;;;31.37;29.57;;;;;;;;;;5012017;28;20542;-59
2021/08/10 06:19:40;;;;;;;32.60;30.70;;;;;;;;;;5010986;28;20442;-59
2021/08/10 06:22:07;;;;;;;33.53;31.63;;;;;;;;;;5010875;28;20518;-58
2021/08/10 06:24:35;;;;;;;31.33;29.40;;;;;;;;;;5009665;28;20526;-60
2021/08/10 06:27:02;;;;;;;32.17;30.37;;;;;;;;;;5013183;28;20570;-61
2021/08/10 06:29:29;;;;;;;30.77;28.97;;;;;;;;;;5016599;28;20468;-60
2021/08/10 06:31:56;;;;;;;32.40;30.40;;;;;;;;;;5018809;28;20470;-61
2021/08/10 06:34:24;;;;;;;31.23;29.20;;;;;;;;;;5015296;28;20506;-59
2021/08/10 06:36:51;;;;;;;30.80;29.00;;;;;;;;;;5013816;28;20530;-63
2021/08/10 06:39:18;;;;;;;30.60;28.63;;;;;;;;;;5014852;28;20506;-59
2021/08/10 06:41:46;;;;;;;29.67;27.77;;;;;;;;;;4997605;28;20446;-59
2021/08/10 06:44:14;;;;;;;30.70;28.60;;;;;;;;;;4996087;28;20469;-58
2021/08/10 06:46:41;;;;;;;31.53;29.53;;;;;;;;;;4993897;28;20491;-58
2021/08/10 06:49:08;;;;;;;29.70;27.80;;;;;;;;;;4997016;28;20450;-59
2021/08/10 06:51:36;;;;;;;30.50;28.70;;;;;;;;;;4997412;28;20456;-58
2021/08/10 06:54:03;;;;;;;31.23;29.40;;;;;;;;;;4995554;28;20470;-58
2021/08/10 06:56:30;;;;;;;30.30;28.50;;;;;;;;;;4999396;28;20470;-59
2021/08/10 06:58:59;;;;;;;30.10;28.30;;;;;;;;;;5008127;28;20465;-59
2021/08/10 07:01:26;;;;;;;30.40;28.60;;;;;;;;;;5001615;28;20522;-59
2021/08/10 07:03:54;;;;;;;29.97;28.27;;;;;;;;;;5000629;28;20454;-59
2021/08/10 07:06:21;;;;;;;31.10;29.40;;;;;;;;;;5001888;28;21195;-59
2021/08/10 07:08:53;;;;;;;29.63;28.03;;;;;;;;;;4990120;28;20509;-58
2021/08/10 07:11:20;;;;;;;29.73;28.10;;;;;;;;;;4990304;28;20447;-61
2021/08/10 07:13:47;;;;;;;40.30;37.90;;;;;;;;;;4996717;28;20462;-60
2021/08/10 07:16:16;;;;;;;50.63;47.63;;;;;;;;;;4996195;28;21053;-61
2021/08/10 07:18:43;;;;;;;54.53;51.20;;;;;;;;;;4994542;28;20541;-60
2021/08/10 07:21:10;;;;;;;47.53;44.60;;;;;;;;;;4991420;28;20481;-59
2021/08/10 07:23:37;;;;;;;49.20;46.10;;;;;;;;;;4995634;28;20450;-63
2021/08/10 07:26:04;;;;;;;53.57;49.93;;;;;;;;;;4991581;28;20471;-62
2021/08/10 07:28:31;;;;;;;52.00;48.90;;;;;;;;;;4988269;28;20489;-60
2021/08/10 07:30:58;;;;;;;54.13;51.03;;;;;;;;;;5002184;28;20450;-61
2021/08/10 07:33:27;;;;;;;55.50;52.20;;;;;;;;;;5012310;28;20494;-63
2021/08/10 07:35:54;;;;;;;56.60;52.43;;;;;;;;;;5008594;28;20566;-60
2021/08/10 07:38:21;;;;;;;69.97;65.70;;;;;;;;;;5002705;28;22625;-61
2021/08/10 07:40:50;;;;;;;87.10;81.97;;;;;;;;;;5004741;28;20530;-61
2021/08/10 07:43:17;;;;;;;87.23;81.53;;;;;;;;;;5007289;28;20497;-64
2021/08/10 07:45:44;;;;;;;80.10;75.70;;;;;;;;;;5006220;28;20609;-61
2021/08/10 07:48:11;;;;;;;91.00;86.40;;;;;;;;;;4976660;28;20494;-63
2021/08/10 07:50:40;;;;;;;109.33;103.73;;;;;;;;;;4991224;28;20843;-62
2021/08/10 07:53:07;;;;;;;105.70;100.30;;;;;;;;;;4995739;28;20450;-65
2021/08/10 07:55:35;;;;;;;98.07;92.77;;;;;;;;;;4993782;28;20505;-61
2021/08/10 07:58:02;;;;;;;87.97;83.17;;;;;;;;;;4995115;28;20450;-62
2021/08/10 08:00:29;;;;;;;82.33;77.83;;;;;;;;;;4992936;28;20459;-61
2021/08/10 08:02:56;;;;;;;85.03;80.43;;;;;;;;;;4994611;28;20769;-62
2021/08/10 08:05:23;;;;;;;109.20;103.70;;;;;;;;;;5051774;23;20497;-70
2021/08/10 08:07:52;;;;;;;102.90;97.80;;;;;;;;;;5033745;28;20861;-70
2021/08/10 08:10:19;;;;;;;118.17;112.57;;;;;;;;;;5038284;28;20448;-69
2021/08/10 08:12:46;;;;;;;142.00;135.40;;;;;;;;;;5016236;28;20464;-70
2021/08/10 08:15:13;;;;;;;150.57;143.33;;;;;;;;;;5019439;28;20487;-69
2021/08/10 08:17:40;;;;;;;144.10;137.20;;;;;;;;;;5034483;28;20449;-69
2021/08/10 08:20:08;;;;;;;175.60;167.73;;;;;;;;;;5049160;28;20448;-69
2021/08/10 08:22:35;;;;;;;182.77;174.60;;;;;;;;;;5036388;28;20457;-69
2021/08/10 08:25:04;;;;;;;225.13;215.40;;;;;;;;;;5048730;28;20983;-70
2021/08/10 08:27:31;;;;;;;234.73;224.33;;;;;;;;;;5035155;28;20484;-70
2021/08/10 08:29:58;;;;;;;256.50;244.70;;;;;;;;;;5035754;28;20451;-70
2021/08/10 08:32:25;;;;;;;265.53;252.83;;;;;;;;;;5033731;28;20956;-72
2021/08/10 08:34:52;;;;;;;273.60;261.30;;;;;;;;;;5034305;28;20477;-70
2021/08/10 08:37:19;;;;;;;280.83;269.10;;;;;;;;;;5038583;28;20455;-69
2021/08/10 08:39:46;;;;;;;249.30;238.90;;;;;;;;;;5043644;28;20448;-70
2021/08/10 08:42:15;;;;;;;205.63;196.53;;;;;;;;;;5049371;28;20458;-72
2021/08/10 08:44:42;;;;;;;216.30;207.33;;;;;;;;;;5039701;28;20476;-71
2021/08/10 08:47:10;;;;;;;242.00;231.87;;;;;;;;;;5041107;28;20456;-70
2021/08/10 08:49:39;;;;;;;218.57;208.97;;;;;;;;;;5037786;28;20445;-70
2021/08/10 08:52:07;;;;;;;206.87;197.47;;;;;;;;;;5033773;28;20456;-70
2021/08/10 08:54:35;;;;;;;182.47;174.27;;;;;;;;;;5035722;28;20482;-70
2021/08/10 08:57:02;;;;;;;181.30;173.20;;;;;;;;;;5033050;28;20461;-70
2021/08/10 08:59:31;;;;;;;178.90;170.73;;;;;;;;;;5043430;28;20514;-71
2021/08/10 09:01:58;;;;;;;163.30;155.93;;;;;;;;;;5031737;28;20457;-71
2021/08/10 09:04:25;;;;;;;158.23;150.93;;;;;;;;;;5047702;28;20845;-70
2021/08/10 09:06:55;;;;;;;125.70;119.50;;;;;;;;;;5033407;28;20552;-70
2021/08/10 09:09:23;;;;;;;126.63;120.53;;;;;;;;;;5033470;28;20679;-70
2021/08/10 09:11:51;;;;;;;122.03;115.83;;;;;;;;;;5037548;28;20544;-70
2021/08/10 09:14:19;;;;;;;116.67;110.60;;;;;;;;;;5033755;28;22063;-70
2021/08/10 09:17:01;;;;;;;102.53;97.43;;;;;;;;;;5033456;28;20457;-69
2021/08/10 09:19:39;;;;;;;89.77;84.67;;;;;;;;;;5040356;28;20526;-69
2021/08/10 09:22:13;;;;;;;83.13;78.80;;;;;;;;;;5046364;28;20445;-69
2021/08/10 09:24:42;;;;;;;68.93;65.00;;;;;;;;;;5038892;28;20471;-70
2021/08/10 09:27:22;;;;;;;67.93;63.87;;;;;;;;;;5052313;28;20456;-69
2021/08/10 09:29:49;;;;;;;59.40;56.10;;;;;;;;;;5045319;28;20441;-71
2021/08/10 09:32:17;;;;;;;57.67;54.27;;;;;;;;;;5023037;28;20455;-70
2021/08/10 09:34:45;;;;;;;56.13;52.60;;;;;;;;;;5035959;28;20468;-70
2021/08/10 09:37:15;;;;;;;54.87;51.30;;;;;;;;;;5053485;28;20450;-70
2021/08/10 09:39:43;;;;;;;49.03;46.13;;;;;;;;;;5050927;28;20803;-70
2021/08/10 09:42:12;;;;;;;51.57;48.47;;;;;;;;;;5047052;28;20440;-70
2021/08/10 09:44:40;;;;;;;52.00;48.97;;;;;;;;;;5044764;28;21014;-71
2021/08/10 09:47:08;;;;;;;49.50;46.80;;;;;;;;;;5033274;28;20448;-70
2021/08/10 09:49:46;;;;;;;48.60;45.70;;;;;;;;;;5037319;28;20480;-70
2021/08/10 09:52:26;;;;;;;46.80;43.83;;;;;;;;;;5032861;28;20455;-70
2021/08/10 09:54:54;;;;;;;44.60;42.00;;;;;;;;;;5036850;28;20502;-70
2021/08/10 09:57:21;;;;;;;44.30;41.50;;;;;;;;;;5014166;28;20468;-70
2021/08/10 09:59:48;;;;;;;44.87;42.20;;;;;;;;;;5049667;28;20459;-70
2021/08/10 10:02:19;;;;;;;41.00;38.30;;;;;;;;;;5037492;28;20518;-70
2021/08/10 10:04:51;;;;;;;40.00;37.60;;;;;;;;;;5045362;28;20487;-70
2021/08/10 10:07:19;;;;;;;40.93;38.63;;;;;;;;;;5037552;28;20449;-70
2021/08/10 10:09:46;;;;;;;40.90;38.50;;;;;;;;;;5036655;28;20487;-71
2021/08/10 10:12:14;;;;;;;40.60;38.30;;;;;;;;;;5032451;28;20820;-70
2021/08/10 10:14:41;;;;;;;135.30;126.27;;;;;;;;;;5032242;28;20473;-66
2021/08/10 10:17:09;;;;;;;118.40;111.80;;;;;;;;;;5032427;28;20796;-69
2021/08/10 10:19:38;;;;;;;120.03;113.33;;;;;;;;;;5034927;28;20448;-71
2021/08/10 10:22:14;;;;;;;92.13;87.00;;;;;;;;;;5036347;28;20459;-69
2021/08/10 10:24:42;;;;;;;106.83;100.40;;;;;;;;;;5035872;28;20533;-68
2021/08/10 10:27:11;;;;;;;106.57;100.80;;;;;;;;;;5039837;28;20460;-69
2021/08/10 10:29:39;;;;;;;105.13;99.40;;;;;;;;;;5035710;28;20495;-68
2021/08/10 10:32:06;;;;;;;88.37;83.53;;;;;;;;;;5031850;28;20449;-68
2021/08/10 10:34:33;;;;;;;74.93;70.63;;;;;;;;;;5031838;28;20471;-69
2021/08/10 10:37:02;;;;;;;67.53;63.43;;;;;;;;;;5032631;28;20454;-71
2021/08/10 10:39:31;;;;;;;57.43;54.03;;;;;;;;;;5041659;28;20499;-69
2021/08/10 10:42:00;;;;;;;52.70;49.40;;;;;;;;;;5032240;28;20453;-68
2021/08/10 10:44:36;;;;;;;46.77;43.87;;;;;;;;;;5033144;28;20476;-70
2021/08/10 10:47:18;;;;;;;46.27;43.53;;;;;;;;;;5050155;28;20454;-68
2021/08/10 10:49:46;;;;;;;42.80;40.00;;;;;;;;;;5048194;28;20472;-68
2021/08/10 10:52:13;;;;;;;41.30;38.77;;;;;;;;;;5032442;28;20467;-68
2021/08/10 10:54:45;;;;;;;38.67;36.27;;;;;;;;;;5032759;28;20471;-69
2021/08/10 10:57:34;;;;;;;36.90;34.50;;;;;;;;;;5043002;28;20459;-68
2021/08/10 11:00:19;;;;;;;38.07;35.53;;;;;;;;;;5028854;28;20878;-71
2021/08/10 11:03:07;;;;;;;37.97;35.57;;;;;;;;;;5039934;28;20448;-69
2021/08/10 11:05:34;;;;;;;35.17;32.87;;;;;;;;;;5034538;28;20480;-69
2021/08/10 11:08:03;;;;;;;32.20;30.30;;;;;;;;;;5031923;28;20947;-69
2021/08/10 11:10:39;;;;;;;33.73;31.80;;;;;;;;;;5033130;28;20456;-68
2021/08/10 11:13:20;;;;;;;34.37;32.30;;;;;;;;;;5032903;28;20456;-69
2021/08/10 11:15:57;;;;;;;34.70;32.60;;;;;;;;;;5043632;28;20448;-71
2021/08/10 11:18:26;;;;;;;32.63;30.73;;;;;;;;;;5038687;28;20506;-68
2021/08/10 11:20:54;;;;;;;35.03;32.70;;;;;;;;;;5036083;28;20952;-71
2021/08/10 11:23:38;;;;;;;36.13;34.03;;;;;;;;;;5031966;28;20985;-69
2021/08/10 11:26:38;;;;;;;36.90;34.70;;;;;;;;;;5056368;28;20454;-69
2021/08/10 11:29:07;;;;;;;40.33;37.60;;;;;;;;;;4938509;29;20511;-68
2021/08/10 11:31:36;;;;;;;38.70;36.50;;;;;;;;;;4935754;29;20457;-67
2021/08/10 11:34:03;;;;;;;37.40;35.20;;;;;;;;;;4981374;28;20503;-66
2021/08/10 11:36:31;;;;;;;37.03;34.87;;;;;;;;;;5035449;28;20459;-66
2021/08/10 11:39:08;;;;;;;34.80;32.90;;;;;;;;;;5034580;28;20453;-66
2021/08/10 11:41:36;;;;;;;39.77;37.37;;;;;;;;;;5034407;28;20464;-66
2021/08/10 11:44:04;;;;;;;40.90;38.50;;;;;;;;;;5035320;28;20924;-66
2021/08/10 11:46:34;;;;;;;44.53;41.83;;;;;;;;;;5034749;28;20453;-67
2021/08/10 11:49:01;;;;;;;41.37;38.87;;;;;;;;;;5031753;28;20484;-67
2021/08/10 11:51:30;;;;;;;40.73;38.53;;;;;;;;;;5034565;28;20455;-67
2021/08/10 11:53:58;;;;;;;46.40;43.50;;;;;;;;;;5039436;28;20479;-69
2021/08/10 11:56:26;;;;;;;44.47;41.87;;;;;;;;;;5042277;28;20825;-70
2021/08/10 11:58:53;;;;;;;43.10;40.60;;;;;;;;;;5039769;28;20451;-69
2021/08/10 12:01:21;;;;;;;44.73;42.03;;;;;;;;;;5051722;28;20463;-69
2021/08/10 12:03:49;;;;;;;43.63;41.03;;;;;;;;;;5044079;28;20494;-70
2021/08/10 12:06:16;;;;;;;42.30;39.70;;;;;;;;;;5033987;28;20471;-69
2021/08/10 12:08:44;;;;;;;41.43;38.93;;;;;;;;;;5037911;28;20486;-69
2021/08/10 12:11:11;;;;;;;37.77;35.57;;;;;;;;;;5054468;28;20935;-69
2021/08/10 12:13:39;;;;;;;40.53;38.13;;;;;;;;;;5054566;28;21154;-69
2021/08/10 12:16:10;;;;;;;42.93;40.33;;;;;;;;;;5052561;28;20454;-70
2021/08/10 12:18:48;;;;;;;42.70;40.30;;;;;;;;;;5049362;28;20502;-69
2021/08/10 12:21:16;;;;;;;41.17;38.77;;;;;;;;;;5034775;28;20456;-69
2021/08/10 12:23:44;;;;;;;43.93;41.47;;;;;;;;;;5034176;28;20468;-69
2021/08/10 12:26:12;;;;;;;43.07;40.57;;;;;;;;;;5035189;28;20463;-69
2021/08/10 12:28:52;;;;;;;46.80;44.10;;;;;;;;;;5034500;28;20483;-69
2021/08/10 12:31:19;;;;;;;60.80;57.30;;;;;;;;;;5034377;28;20944;-69
2021/08/10 12:33:49;;;;;;;56.07;52.87;;;;;;;;;;5030751;28;21016;-69
2021/08/10 12:36:18;;;;;;;69.47;65.70;;;;;;;;;;5021041;28;20440;-69
2021/08/10 12:38:46;;;;;;;66.50;62.80;;;;;;;;;;5034169;28;20456;-69
2021/08/10 12:41:14;;;;;;;68.30;64.60;;;;;;;;;;5033598;28;20831;-70
2021/08/10 12:43:41;;;;;;;63.57;60.17;;;;;;;;;;5034418;28;20983;-69
2021/08/10 12:46:27;;;;;;;66.17;62.47;;;;;;;;;;5035285;28;20452;-69
2021/08/10 12:49:21;;;;;;;66.93;63.20;;;;;;;;;;5054562;28;20488;-70
2021/08/10 12:51:53;;;;;;;66.37;62.67;;;;;;;;;;4992137;28;20967;-69
2021/08/10 12:54:21;;;;;;;53.70;50.60;;;;;;;;;;5036161;28;20463;-69
2021/08/10 12:56:48;;;;;;;48.73;45.90;;;;;;;;;;5034921;28;20453;-69
2021/08/10 12:59:15;;;;;;;44.03;41.43;;;;;;;;;;5034228;28;20441;-69
2021/08/10 13:01:43;;;;;;;41.20;38.90;;;;;;;;;;5033766;28;20459;-69
2021/08/10 13:04:10;;;;;;;41.43;38.93;;;;;;;;;;5035304;28;20487;-69
2021/08/10 13:06:38;;;;;;;40.47;38.00;;;;;;;;;;5033808;28;20456;-69
2021/08/10 13:09:07;;;;;;;38.93;36.53;;;;;;;;;;5029858;28;20480;-69
2021/08/10 13:11:35;;;;;;;35.97;33.77;;;;;;;;;;5018112;28;20461;-69
2021/08/10 13:14:09;;;;;;;33.80;31.90;;;;;;;;;;5043452;28;20991;-70
2021/08/10 13:16:37;;;;;;;32.00;30.30;;;;;;;;;;5055739;28;20495;-69
2021/08/10 13:19:14;;;;;;;31.03;29.27;;;;;;;;;;5050273;28;20938;-69
2021/08/10 13:21:45;;;;;;;31.07;29.27;;;;;;;;;;5033282;28;20444;-69
2021/08/10 13:24:14;;;;;;;32.37;30.37;;;;;;;;;;5033454;28;20500;-70
2021/08/10 13:26:42;;;;;;;33.47;31.57;;;;;;;;;;5032970;28;20444;-69
2021/08/10 13:29:10;;;;;;;31.43;29.73;;;;;;;;;;5033503;28;20845;-69
2021/08/10 13:31:46;;;;;;;30.13;28.33;;;;;;;;;;5033529;28;20454;-70
2021/08/10 13:34:13;;;;;;;28.83;27.23;;;;;;;;;;5033332;28;20468;-69
2021/08/10 13:36:40;;;;;;;29.23;27.63;;;;;;;;;;5032826;28;20459;-70
2021/08/10 13:39:09;;;;;;;28.30;26.80;;;;;;;;;;5032364;28;20441;-69
2021/08/10 13:41:40;;;;;;;27.63;26.03;;;;;;;;;;5032136;28;20959;-70
2021/08/10 13:44:07;;;;;;;28.63;26.93;;;;;;;;;;5033747;28;20514;-70
2021/08/10 13:46:35;;;;;;;28.53;27.03;;;;;;;;;;5044325;28;20459;-69
2021/08/10 13:49:03;;;;;;;28.13;26.53;;;;;;;;;;5038992;28;20983;-69
2021/08/10 13:51:31;;;;;;;28.90;27.40;;;;;;;;;;5033455;28;20467;-69
2021/08/10 13:53:58;;;;;;;29.53;27.93;;;;;;;;;;5032501;28;20476;-69
2021/08/10 13:56:26;;;;;;;29.13;27.43;;;;;;;;;;5032923;28;20453;-69
2021/08/10 13:58:57;;;;;;;28.03;26.47;;;;;;;;;;5032898;28;20445;-70
2021/08/10 14:01:29;;;;;;;27.37;25.87;;;;;;;;;;5032859;28;20518;-70
2021/08/10 14:03:56;;;;;;;28.53;26.93;;;;;;;;;;5032954;28;20476;-70
2021/08/10 14:06:23;;;;;;;28.90;27.30;;;;;;;;;;5053076;22;20500;-69
2021/08/10 14:08:50;;;;;;;32.10;30.33;;;;;;;;;;5011481;28;20458;-69
2021/08/10 14:11:18;;;;;;;36.53;34.53;;;;;;;;;;5017115;28;20450;-69
2021/08/10 14:13:45;;;;;;;36.60;34.50;;;;;;;;;;5012661;28;20532;-69
2021/08/10 14:16:15;;;;;;;43.90;41.50;;;;;;;;;;5011611;28;20558;-69
2021/08/10 14:18:42;;;;;;;42.00;39.60;;;;;;;;;;5013133;28;20504;-69
2021/08/10 14:21:09;;;;;;;41.80;39.50;;;;;;;;;;5013057;28;20463;-69
2021/08/10 14:23:36;;;;;;;39.50;37.30;;;;;;;;;;5013483;28;20460;-69